HESH/SSH METAR and TAF weather

Enter ICAO airport designator
Station Type Date Time Source
HESH METAR 2019/02/20 23:00 UTC NOAA

HESH 202300Z 00000KT CAVOK 15/08 Q1018 NOSIG


Station Type Date Time Source
HESH Decoded METAR 2019/02/20 23:00 UTC NOAA

Sharm El Sheikhintl, Egypt (HESH) 27-58N 034-23E
Feb 20, 2019 - 06:00 PM EST / 2019.02.20 2300 UTC
Wind: Calm:0
Visibility: greater than 7 mile(s):0
Temperature: 59 F (15 C)
Dew Point: 46 F (8 C)
Relative Humidity: 62%
Pressure (altimeter): 30.06 in. Hg (1018 hPa)
ob: HESH 202300Z 00000KT CAVOK 15/08 Q1018 NOSIG
cycle: 23

Station Type Date Time Source
HESH TAF 2019/02/20 18:43 UTC NOAA

TAF HESH 201700Z 2018/2124 33010KT CAVOK


Example: see airport list